ストックホルム/アーランダ の空港の天気 - METARとTAF

ストックホルム・アーランダ空港 ( ESSA / ARN ) - スウェーデン ストックホルム
飛行場実況気象(Metar)
観測時間02/17 15:50 CET (02/17 14:50 UTC)
風向・風速不定 1m/s
視程10km以上
天気現象
なし
気温2℃
湿度64%
気圧1020hPa
METARESSA 171450Z VRB01KT CAVOK 02/M04 Q1020 R01L/19//50 R08/19//51 R01R/19//62 NOSIG
過去の天気等 Google飛行場航空写真 Wunderground天気予報

過去48時間のMETAR

飛行場予報(TAF)
発表時間: 2/17 12:55 CET (2/17 11:55 UTC)
予報対象時間: 17日13時 CET ~ 18日13時 CET
風向・風速北北西 3m/s
視程10km以上
なし
17日23時 CET ~ 18日1時 CET に徐々に
全天の8割程度の雲 雲底高度 240m
18日3時 CET ~ 18日5時 CET に徐々に
視程2000m
天気現象もや
全天を覆う雲 雲底高度 90m
18日3時 CET から 確率 40% で
視程200m
天気現象
全天を覆う雲 鉛直視程 30m
18日7時 CET ~ 18日9時 CET に徐々に
視程10km以上
全天の4割程度の雲 雲底高度 240m
全天の8割程度の雲 雲底高度 460m
TAF AMD ESSA 171155Z 1712/1812 33006KT CAVOK
BECMG 1722/1724 BKN008
BECMG 1802/1804 2000 BR OVC003
PROB40 1802/1806 0200 FG VV001
BECMG 1806/1808 9999 SCT008 BKN015